createdAt,value
2022-08-07T20:16:58.297Z,100067.09
2022-08-07T20:19:49.402Z,100064.06
2022-08-07T20:22:29.207Z,100071.03
2022-08-07T20:25:19.547Z,100076.91
2022-08-07T20:27:58.551Z,100078.28
2022-08-07T20:30:33.588Z,100081.50
2022-08-07T20:33:05.404Z,100074.91
2022-08-07T20:35:51.803Z,100077.59
2022-08-07T20:38:25.067Z,100073.94
2022-08-07T20:41:03.596Z,100080.81
2022-08-07T20:43:34.540Z,100081.38
2022-08-07T20:46:27.637Z,100075.47
2022-08-07T20:49:02.411Z,100081.22
2022-08-07T20:51:50.475Z,100080.91
2022-08-07T20:54:29.551Z,100086.28
2022-08-07T20:57:04.664Z,100073.16
2022-08-07T21:00:07.236Z,100085.09
2022-08-07T21:02:55.252Z,100087.66
2022-08-07T21:05:52.467Z,100087.47
2022-08-07T21:08:36.798Z,100085.47
2022-08-07T21:11:10.885Z,100090.84
2022-08-07T21:13:57.876Z,100087.66
2022-08-07T21:16:37.743Z,100080.91
2022-08-07T21:19:32.035Z,100097.06
2022-08-07T21:22:19.357Z,100109.69
2022-08-07T21:24:51.673Z,100106.84
2022-08-07T21:27:27.777Z,100106.16
2022-08-07T21:30:11.214Z,100111.84
2022-08-07T21:32:49.463Z,100114.38
2022-08-07T21:35:35.014Z,100107.47
2022-08-07T21:38:21.538Z,100106.94
2022-08-07T21:41:06.926Z,100105.09
2022-08-07T21:46:31.866Z,100120.50
2022-08-07T21:49:14.904Z,100120.34
2022-08-07T21:51:55.768Z,100113.25
2022-08-07T21:54:37.409Z,100108.53
2022-08-07T21:57:39.354Z,100113.22
2022-08-07T22:00:22.035Z,100120.41
2022-08-07T22:03:10.161Z,100125.63
2022-08-07T22:05:48.539Z,100121.22
2022-08-07T22:08:20.160Z,100121.19
2022-08-07T22:10:52.057Z,100121.50
2022-08-07T22:13:24.618Z,100117.38
2022-08-07T22:16:43.410Z,100123.22
2022-08-07T22:19:08.303Z,100125.72
2022-08-07T22:22:04.467Z,100118.97
2022-08-07T22:24:37.203Z,100126.38
2022-08-07T22:27:18.412Z,100130.09
2022-08-07T22:29:55.595Z,100127.56
2022-08-07T22:32:34.266Z,100127.19
2022-08-07T22:35:04.950Z,100131.94
2022-08-07T22:38:03.694Z,100131.19
2022-08-07T22:40:40.115Z,100135.66
2022-08-07T22:43:12.625Z,100129.25
2022-08-07T22:46:04.767Z,100136.06
2022-08-07T22:49:09.453Z,100129.78
2022-08-07T22:52:19.649Z,100132.75
2022-08-07T22:55:29.726Z,100144.31
2022-08-07T22:58:28.815Z,100146.38
2022-08-07T23:01:16.360Z,100141.94
2022-08-07T23:04:00.384Z,100148.22
2022-08-07T23:06:55.362Z,100156.34
2022-08-07T23:10:06.535Z,100147.50
2022-08-07T23:12:55.652Z,100163.06
2022-08-07T23:16:06.619Z,100156.63
2022-08-07T23:18:42.221Z,100157.53
2022-08-07T23:21:30.144Z,100155.44
2022-08-07T23:24:29.659Z,100159.88
2022-08-07T23:27:13.911Z,100156.25
2022-08-07T23:30:37.278Z,100158.50
2022-08-07T23:34:33.814Z,100164.44
2022-08-07T23:36:22.957Z,100159.25
2022-08-07T23:39:08.731Z,100161.06
2022-08-07T23:42:04.441Z,100161.06
2022-08-07T23:45:02.593Z,100151.63
2022-08-07T23:47:46.633Z,100163.47
2022-08-07T23:50:34.615Z,100162.91
2022-08-07T23:53:21.232Z,100170.91
2022-08-07T23:55:58.038Z,100165.00
2022-08-07T23:58:37.380Z,100159.41
